Rechercher aéroport 
image banner adimage banner adimage banner ad
image banner ad

KSJC - Norman Y Mineta San Jose Intl

Situé à San Jose, United States

ICAO - SJC, IATA - SJC

Données fournies par Airmate  

Information générale

Coordonnées: N37°21'47" W121°55'43"
Élévation : 62 feet MSL.
Variation magnétique : 13° East
Voir autres Aéroports à California

Données opérationnelles

Special qualification required
Heure actuelle UTC:
Heure actuelle locale:
Météo
METAR: KSJC 262253Z 32010KT 10SM FEW070 SCT100 OVC250 25/14 A2989 RMK AO2 SLP121 T02500139
TAF: KSJC 261720Z 2618/2718 VRB03KT P6SM FEW018 SCT070 FM262100 31011KT P6SM BKN200 FM270300 32006KT P6SM SCT050 BKN200 FM270800 VRB04KT P6SM BKN050 BKN200 FM271200 VRB03KT P6SM SCT015 OVC100
Voir NOTAMs / SUP AIP / TFR affectant cet aéroport [VIEW]
Fréquences de communication: [VIEW]

Pistes:

Identifiant RWYQFULongueur (ft)Largeur (ft)SurfaceLDA (ft)
12R139°11000150CONC8587
30L319°11000150CONC7614
12L139°11000150CONC8831
30R319°11000150CONC7597

Coordonnées de l'aéroport

Adresse: San Jose United States

Vue satellite de KSJC